Time;durP1;ratioP1;P1;durP2;ratioP2;P2;SDS_P1;SDS_P2;PMS_P1;PMS_P2;Temp;Humidity;BMP_temperature;BMP_pressure;BME280_temperature;BME280_humidity;BME280_pressure;Samples;Min_cycle;Max_cycle;Signal;HPM_P1;HPM_P2
2022/07/12 04:01:07;;;;;;;5.30;4.80;;;13.80;99.90;;;;;;5634344;23;20240;-70
2022/07/12 04:03:34;;;;;;;6.10;5.60;;;13.80;99.90;;;;;;4953537;29;20460;-70
2022/07/12 04:06:00;;;;;;;5.93;5.45;;;13.80;99.90;;;;;;4952256;29;20201;-70
2022/07/12 04:08:27;;;;;;;5.73;5.23;;;13.80;99.90;;;;;;4943875;29;20550;-70
2022/07/12 04:10:55;;;;;;;6.87;5.17;;;13.90;99.90;;;;;;4944343;29;20489;-70
2022/07/12 04:13:21;;;;;;;4.90;4.50;;;14.00;99.90;;;;;;4934333;29;20841;-70
2022/07/12 04:15:48;;;;;;;5.00;4.60;;;13.90;99.90;;;;;;4934649;29;20466;-68
2022/07/12 04:18:16;;;;;;;5.67;5.20;;;14.00;99.90;;;;;;4929311;29;20476;-68
2022/07/12 04:20:43;;;;;;;5.80;5.30;;;14.00;99.90;;;;;;4933462;29;20486;-68
2022/07/12 04:23:10;;;;;;;5.00;4.60;;;14.10;99.90;;;;;;4933157;29;20847;-68
2022/07/12 04:25:36;;;;;;;5.20;4.83;;;14.20;99.90;;;;;;4934001;29;20489;-68
2022/07/12 04:28:03;;;;;;;5.43;4.93;;;14.30;99.90;;;;;;4933923;29;20461;-68
2022/07/12 04:30:30;;;;;;;4.57;4.33;;;14.60;99.90;;;;;;4933430;29;20485;-69
2022/07/12 04:32:57;;;;;;;4.47;4.17;;;15.30;99.90;;;;;;4933933;29;20466;-69
2022/07/12 04:35:25;;;;;;;4.27;4.03;;;16.20;99.90;;;;;;4933192;29;20496;-68
2022/07/12 04:37:51;;;;;;;3.80;3.70;;;17.00;99.90;;;;;;4933869;29;20461;-68
2022/07/12 04:40:18;;;;;;;3.50;3.40;;;17.80;99.90;;;;;;4933739;29;20480;-68
2022/07/12 04:42:45;;;;;;;4.00;3.90;;;18.60;99.90;;;;;;4933975;29;20480;-68
2022/07/12 04:45:12;;;;;;;3.63;3.53;;;19.20;99.90;;;;;;4933857;29;20465;-68
2022/07/12 04:47:38;;;;;;;3.83;3.63;;;19.70;99.90;;;;;;4934325;29;20465;-69
2022/07/12 04:50:06;;;;;;;3.30;3.30;;;20.30;99.90;;;;;;4933528;29;20935;-68
2022/07/12 04:52:35;;;;;;;2.90;2.90;;;20.80;99.90;;;;;;4934013;29;20512;-68
2022/07/12 04:55:02;;;;;;;3.00;3.00;;;21.20;99.90;;;;;;4933488;29;20485;-67
2022/07/12 04:57:28;;;;;;;3.50;3.30;;;21.40;99.90;;;;;;4934355;29;20461;-68
2022/07/12 04:59:55;;;;;;;3.10;3.07;;;21.60;99.90;;;;;;4933222;29;20476;-67
2022/07/12 05:02:22;;;;;;;3.20;3.20;;;22.00;99.90;;;;;;4934183;29;20499;-67
2022/07/12 05:04:48;;;;;;;2.47;2.47;;;22.30;99.90;;;;;;4931793;29;20521;-68
2022/07/12 05:07:15;;;;;;;3.10;3.00;;;22.60;99.90;;;;;;4926501;29;20497;-67
2022/07/12 05:09:43;;;;;;;3.40;3.30;;;22.80;99.90;;;;;;4932667;29;20470;-67
2022/07/12 05:12:10;;;;;;;4.43;3.20;;;22.30;99.90;;;;;;4915185;29;20493;-67
2022/07/12 05:14:36;;;;;;;3.47;3.37;;;21.80;99.90;;;;;;4926556;29;20486;-68
2022/07/12 05:17:04;;;;;;;3.43;3.43;;;21.30;99.90;;;;;;4933325;29;20465;-69
2022/07/12 05:19:30;;;;;;;3.27;3.17;;;20.80;99.90;;;;;;4933225;29;20472;-68
2022/07/12 05:21:57;;;;;;;3.70;3.60;;;20.30;99.90;;;;;;4933412;29;20482;-68
2022/07/12 05:24:24;;;;;;;3.37;3.27;;;20.00;99.90;;;;;;4933807;29;20847;-68
2022/07/12 05:26:52;;;;;;;3.33;3.00;;;19.80;99.90;;;;;;4933539;29;20493;-69
2022/07/12 05:29:18;;;;;;;3.10;3.00;;;19.60;99.90;;;;;;4935819;29;20474;-68
2022/07/12 05:31:45;;;;;;;3.83;3.53;;;19.50;99.90;;;;;;4935221;29;20496;-68
2022/07/12 05:34:12;;;;;;;3.30;3.13;;;19.40;99.90;;;;;;4933528;29;20488;-69
2022/07/12 05:36:38;;;;;;;3.17;3.07;;;19.30;99.90;;;;;;4933343;29;20569;-69
2022/07/12 05:39:05;;;;;;;4.90;3.50;;;19.20;99.90;;;;;;4933309;29;21018;-69
2022/07/12 05:41:32;;;;;;;3.80;3.60;;;19.30;99.90;;;;;;4932735;29;22513;-68
2022/07/12 05:44:00;;;;;;;3.53;3.30;;;19.90;99.90;;;;;;4933368;29;20472;-68
2022/07/12 05:46:27;;;;;;;2.80;2.70;;;20.50;99.90;;;;;;4932908;29;20934;-68
2022/07/12 05:48:54;;;;;;;3.13;3.03;;;20.80;99.90;;;;;;4932669;29;20462;-68
2022/07/12 05:54:05;;;;;;;3.00;2.90;;;20.70;99.90;;;;;;4933220;29;20457;-68
2022/07/12 05:56:32;;;;;;;3.10;3.00;;;20.80;99.90;;;;;;4926628;29;20730;-69
2022/07/12 05:59:00;;;;;;;3.10;2.90;;;21.00;99.90;;;;;;4933002;29;20560;-68
2022/07/12 06:01:26;;;;;;;3.33;3.13;;;21.40;99.90;;;;;;4929335;29;21060;-67
2022/07/12 06:03:53;;;;;;;2.77;2.77;;;21.70;99.90;;;;;;4919381;29;20486;-69
2022/07/12 06:06:20;;;;;;;2.60;2.60;;;22.10;99.90;;;;;;4935304;29;20466;-69
2022/07/12 06:08:47;;;;;;;2.13;1.97;;;22.50;99.90;;;;;;4937234;29;20842;-68
2022/07/12 06:11:13;;;;;;;1.93;1.93;;;22.60;99.90;;;;;;4932912;29;20987;-69
2022/07/12 06:13:40;;;;;;;2.10;2.00;;;22.60;99.90;;;;;;4933712;29;20899;-68
2022/07/12 06:16:10;;;;;;;2.30;2.20;;;22.40;99.90;;;;;;4932242;29;20498;-68
2022/07/12 06:18:36;;;;;;;1.60;1.60;;;22.40;99.90;;;;;;4932370;29;20475;-69
2022/07/12 06:21:03;;;;;;;3.50;2.10;;;22.20;99.90;;;;;;4932522;29;20853;-68
2022/07/12 06:23:30;;;;;;;2.03;1.77;;;21.80;99.90;;;;;;4932721;29;20462;-68
2022/07/12 06:25:57;;;;;;;1.37;1.37;;;21.50;99.90;;;;;;4933004;29;20458;-68
2022/07/12 06:28:24;;;;;;;2.20;1.67;;;21.60;99.90;;;;;;4932821;29;20469;-68
2022/07/12 06:30:51;;;;;;;1.73;1.70;;;21.80;99.90;;;;;;4929750;29;21001;-68
2022/07/12 06:33:19;;;;;;;2.40;2.17;;;21.80;99.90;;;;;;4932685;29;20476;-68
2022/07/12 06:35:45;;;;;;;1.50;1.50;;;21.80;99.90;;;;;;4932846;29;20481;-68
2022/07/12 06:38:12;;;;;;;1.47;1.47;;;22.20;99.90;;;;;;4927262;29;20458;-68
2022/07/12 06:40:39;;;;;;;1.47;1.47;;;22.60;99.90;;;;;;4932859;29;20959;-68
2022/07/12 06:43:09;;;;;;;1.70;1.70;;;22.50;99.90;;;;;;4933095;29;20465;-69
2022/07/12 06:45:36;;;;;;;1.47;1.47;;;22.30;99.90;;;;;;4934511;29;20467;-68
2022/07/12 06:48:04;;;;;;;1.80;1.70;;;22.60;99.90;;;;;;4936498;29;20908;-68
2022/07/12 06:50:32;;;;;;;1.40;1.40;;;23.30;99.90;;;;;;4935983;29;20488;-68
2022/07/12 06:52:59;;;;;;;1.67;1.57;;;23.40;99.90;;;;;;4935656;29;20917;-68
2022/07/12 06:55:26;;;;;;;1.60;1.60;;;23.50;99.90;;;;;;4935868;29;20575;-68
2022/07/12 06:57:52;;;;;;;1.40;1.40;;;23.50;99.90;;;;;;4936583;29;20476;-68
2022/07/12 07:00:19;;;;;;;2.27;2.10;;;23.20;99.90;;;;;;4935381;29;20472;-68
2022/07/12 07:02:46;;;;;;;2.20;1.80;;;23.40;99.90;;;;;;4936612;29;20473;-68
2022/07/12 07:05:15;;;;;;;1.57;1.57;;;23.40;99.90;;;;;;4933292;29;20495;-68
2022/07/12 07:07:43;;;;;;;1.77;1.70;;;23.20;99.90;;;;;;4928185;29;20521;-69
2022/07/12 07:10:10;;;;;;;1.90;1.90;;;23.00;99.90;;;;;;4935436;29;20469;-68
2022/07/12 07:12:36;;;;;;;2.30;2.20;;;23.00;99.90;;;;;;4936148;29;20517;-68
2022/07/12 07:15:04;;;;;;;1.83;1.80;;;23.00;99.90;;;;;;4935425;29;20497;-68
2022/07/12 07:17:30;;;;;;;1.90;1.90;;;23.10;99.90;;;;;;4935648;29;20474;-68
2022/07/12 07:19:57;;;;;;;2.23;2.10;;;23.40;99.90;;;;;;4934593;29;20929;-68
2022/07/12 07:22:24;;;;;;;1.50;1.50;;;23.70;99.90;;;;;;4935928;29;20848;-68
2022/07/12 07:24:52;;;;;;;1.40;1.40;;;23.70;99.90;;;;;;4935037;29;20980;-68
2022/07/12 07:27:18;;;;;;;1.47;1.47;;;23.90;99.90;;;;;;4935390;29;20468;-67
2022/07/12 07:32:29;;;;;;;1.90;1.80;;;24.10;99.90;;;;;;4936116;29;20604;-67
2022/07/12 07:34:56;;;;;;;1.80;1.80;;;24.70;99.90;;;;;;4938037;29;20495;-68
2022/07/12 07:37:23;;;;;;;1.57;1.57;;;25.00;99.90;;;;;;4935906;29;20894;-68
2022/07/12 07:39:51;;;;;;;1.70;1.67;;;25.00;99.90;;;;;;4935185;29;20516;-68
2022/07/12 07:42:18;;;;;;;1.83;1.80;;;24.70;99.90;;;;;;4935803;29;20484;-67
2022/07/12 07:44:45;;;;;;;1.67;1.67;;;24.80;99.90;;;;;;4935009;29;20464;-67
2022/07/12 07:47:11;;;;;;;1.73;1.63;;;24.80;99.90;;;;;;4935567;29;20464;-67
2022/07/12 07:49:38;;;;;;;1.97;1.97;;;24.50;99.90;;;;;;4934823;29;20479;-67
2022/07/12 07:52:05;;;;;;;1.93;1.93;;;24.40;99.90;;;;;;4934688;29;20829;-67
2022/07/12 07:54:32;;;;;;;1.57;1.57;;;24.30;99.90;;;;;;4935086;29;20932;-67
2022/07/12 07:57:00;;;;;;;2.10;1.90;;;24.10;99.90;;;;;;4930810;29;20568;-67
2022/07/12 07:59:27;;;;;;;1.77;1.77;;;23.90;99.90;;;;;;4935267;29;20558;-67
2022/07/12 08:01:53;;;;;;;2.83;2.63;;;23.80;99.90;;;;;;4934317;29;20499;-68
2022/07/12 08:04:22;;;;;;;1.80;1.80;;;23.60;99.90;;;;;;4934924;29;20471;-68
2022/07/12 08:06:50;;;;;;;1.80;1.80;;;23.50;99.90;;;;;;4934524;29;20478;-67
2022/07/12 08:09:17;;;;;;;1.60;1.60;;;23.50;99.90;;;;;;4932593;29;20470;-67
2022/07/12 08:11:44;;;;;;;1.63;1.63;;;23.40;99.90;;;;;;4926684;29;21007;-68
2022/07/12 08:14:12;;;;;;;2.00;2.00;;;23.30;99.90;;;;;;4934868;29;20990;-67
2022/07/12 08:16:39;;;;;;;2.20;2.20;;;23.30;99.90;;;;;;4933731;29;20490;-68
2022/07/12 08:19:05;;;;;;;1.87;1.80;;;23.20;99.90;;;;;;4934280;29;20817;-68
2022/07/12 08:21:32;;;;;;;1.93;1.93;;;23.10;99.90;;;;;;4934065;29;20509;-67
2022/07/12 08:23:59;;;;;;;1.90;1.90;;;23.10;99.90;;;;;;4934832;29;20468;-68
2022/07/12 08:26:26;;;;;;;1.80;1.80;;;22.90;99.90;;;;;;4933743;29;20472;-68
2022/07/12 08:28:52;;;;;;;2.10;2.10;;;22.80;99.90;;;;;;4931666;29;20482;-67
2022/07/12 08:31:20;;;;;;;3.13;1.60;;;23.00;99.90;;;;;;4930521;29;20477;-68
2022/07/12 08:33:47;;;;;;;1.73;1.73;;;23.80;99.90;;;;;;4933847;29;20472;-67
2022/07/12 08:36:14;;;;;;;1.40;1.40;;;24.30;99.90;;;;;;4934321;29;20492;-68
2022/07/12 08:38:43;;;;;;;1.80;1.80;;;24.50;99.90;;;;;;4934482;29;20514;-68
2022/07/12 08:41:12;;;;;;;1.40;1.40;;;24.50;99.90;;;;;;4933112;29;20580;-68
2022/07/12 08:43:39;;;;;;;1.57;1.57;;;24.30;99.90;;;;;;4933746;29;20470;-68
2022/07/12 08:46:06;;;;;;;1.40;1.40;;;24.30;99.90;;;;;;4934156;29;20473;-67
2022/07/12 08:48:35;;;;;;;2.00;2.00;;;24.10;99.90;;;;;;4933629;29;20504;-67
2022/07/12 08:51:04;;;;;;;1.97;1.97;;;23.80;99.90;;;;;;4933506;29;20494;-68
2022/07/12 08:53:31;;;;;;;1.87;1.87;;;23.70;99.90;;;;;;4933903;29;20463;-68
2022/07/12 08:55:58;;;;;;;1.50;1.50;;;23.70;99.90;;;;;;4933589;29;20483;-68
2022/07/12 08:58:24;;;;;;;1.60;1.60;;;23.70;99.90;;;;;;4933820;29;20477;-68
2022/07/12 09:00:51;;;;;;;1.83;1.83;;;23.70;99.90;;;;;;4932636;29;20890;-67
2022/07/12 09:03:20;;;;;;;1.87;1.87;;;23.60;99.90;;;;;;4932766;29;20474;-68
2022/07/12 09:05:52;;;;;;;1.67;1.67;;;23.50;99.90;;;;;;4932963;29;20466;-68
2022/07/12 09:08:26;;;;;;;2.00;1.90;;;23.70;99.90;;;;;;4931899;29;20466;-68
2022/07/12 09:10:55;;;;;;;2.00;1.90;;;23.90;99.90;;;;;;4929790;29;20541;-68
2022/07/12 09:13:42;;;;;;;2.00;2.00;;;23.80;99.90;;;;;;4930546;29;20965;-67
2022/07/12 09:16:15;;;;;;;2.03;2.03;;;23.60;99.90;;;;;;4929386;29;20497;-68
2022/07/12 09:18:42;;;;;;;2.40;2.30;;;23.50;99.90;;;;;;4928947;29;20469;-67
2022/07/12 09:21:10;;;;;;;1.90;1.90;;;23.50;99.90;;;;;;4932431;29;20487;-67
2022/07/12 09:23:37;;;;;;;1.80;1.80;;;23.60;99.90;;;;;;4932612;29;20472;-68
2022/07/12 09:26:09;;;;;;;2.10;2.03;;;23.80;99.90;;;;;;4932468;29;20990;-68
2022/07/12 09:28:36;;;;;;;1.87;1.87;;;23.80;99.90;;;;;;4932841;29;20521;-67
2022/07/12 09:31:03;;;;;;;2.30;2.20;;;23.80;99.90;;;;;;4931902;29;20488;-67
2022/07/12 09:36:17;;;;;;;1.87;1.80;;;23.90;99.90;;;;;;4930877;29;20984;-67
2022/07/12 09:38:52;;;;;;;2.17;2.17;;;24.00;99.90;;;;;;4932499;29;20474;-67
2022/07/12 09:41:20;;;;;;;2.33;2.30;;;24.30;99.90;;;;;;4932287;29;20493;-68
2022/07/12 09:43:48;;;;;;;2.47;2.37;;;24.20;99.90;;;;;;4932238;29;20470;-68
2022/07/12 09:46:15;;;;;;;1.80;1.80;;;24.10;99.90;;;;;;4931937;29;20554;-67
2022/07/12 09:48:42;;;;;;;2.10;2.10;;;24.20;99.90;;;;;;4931679;29;20466;-68
2022/07/12 09:51:10;;;;;;;2.13;2.10;;;24.30;99.90;;;;;;4932184;29;20487;-67
2022/07/12 09:53:44;;;;;;;2.27;2.17;;;24.50;99.90;;;;;;4932278;29;20971;-68
2022/07/12 09:56:12;;;;;;;1.60;1.60;;;24.50;99.90;;;;;;4928613;29;20503;-67
2022/07/12 09:58:42;;;;;;;1.93;1.93;;;24.60;99.90;;;;;;4931464;29;20823;-67
2022/07/12 10:01:09;;;;;;;2.03;2.03;;;24.50;99.90;;;;;;4896322;29;1043994;-66
2022/07/12 10:03:37;;;;;;;1.80;1.80;;;24.70;99.90;;;;;;4932733;29;20216;-66
2022/07/12 10:06:05;;;;;;;2.10;2.03;;;24.70;99.90;;;;;;4933351;29;20468;-66
2022/07/12 10:08:32;;;;;;;2.00;2.00;;;24.70;99.90;;;;;;4933107;29;20470;-67
2022/07/12 10:11:00;;;;;;;2.10;2.10;;;24.70;99.90;;;;;;4924188;29;20840;-67
2022/07/12 10:13:27;;;;;;;1.97;1.97;;;24.80;99.90;;;;;;4934328;29;20472;-67
2022/07/12 10:16:00;;;;;;;1.90;1.90;;;24.80;99.90;;;;;;4931203;29;20859;-67
2022/07/12 10:18:27;;;;;;;2.23;2.13;;;25.00;99.90;;;;;;4929052;29;20982;-68
2022/07/12 10:20:53;;;;;;;1.93;1.90;;;25.10;99.90;;;;;;4934590;29;20496;-68
2022/07/12 10:23:34;;;;;;;1.87;1.87;;;25.10;99.90;;;;;;4936448;29;20484;-68
2022/07/12 10:26:02;;;;;;;1.80;1.80;;;25.30;99.90;;;;;;4936523;29;20467;-67
2022/07/12 10:29:03;;;;;;;1.60;1.60;;;25.30;99.90;;;;;;4935382;29;20503;-68
2022/07/12 10:31:32;;;;;;;1.80;1.80;;;25.20;99.90;;;;;;4856820;29;20566;-68
2022/07/12 10:34:21;;;;;;;2.03;2.03;;;25.30;99.90;;;;;;4915905;29;20500;-68
2022/07/12 10:37:10;;;;;;;2.47;2.03;;;25.30;99.90;;;;;;4935863;29;20531;-68
2022/07/12 10:39:37;;;;;;;2.13;2.13;;;25.20;99.90;;;;;;4926621;29;20535;-68
2022/07/12 10:42:17;;;;;;;2.33;2.23;;;25.10;99.90;;;;;;4936724;29;20970;-68
2022/07/12 10:44:47;;;;;;;2.30;2.30;;;25.00;99.90;;;;;;4936879;29;20473;-68
2022/07/12 10:47:17;;;;;;;1.70;1.70;;;24.90;99.90;;;;;;4939420;29;20774;-69
2022/07/12 10:49:47;;;;;;;2.30;2.20;;;24.80;99.90;;;;;;4947684;29;20441;-68
2022/07/12 10:52:26;;;;;;;2.17;2.10;;;24.60;99.90;;;;;;4960713;29;20640;-69
2022/07/12 10:55:23;;;;;;;2.17;2.07;;;24.40;99.90;;;;;;4957938;29;20461;-68
2022/07/12 10:57:52;;;;;;;2.20;2.20;;;24.30;99.90;;;;;;4906680;29;20522;-68
2022/07/12 11:00:19;;;;;;;2.50;2.50;;;24.20;99.90;;;;;;4926456;29;20481;-68
2022/07/12 11:02:46;;;;;;;2.80;2.70;;;24.10;99.90;;;;;;4936265;29;20943;-68
2022/07/12 11:05:13;;;;;;;2.70;2.50;;;24.10;99.90;;;;;;4934820;29;20469;-68
2022/07/12 11:07:40;;;;;;;2.00;2.00;;;24.00;99.90;;;;;;4935727;29;20465;-69
2022/07/12 11:10:07;;;;;;;1.90;1.90;;;23.90;99.90;;;;;;4935386;29;20496;-68
2022/07/12 11:12:34;;;;;;;2.73;2.63;;;23.80;99.90;;;;;;4935739;29;20477;-68
2022/07/12 11:15:03;;;;;;;3.00;2.90;;;23.80;99.90;;;;;;4929049;29;20844;-69
2022/07/12 11:17:31;;;;;;;2.13;2.10;;;23.90;99.90;;;;;;4933932;29;20489;-69
2022/07/12 11:20:10;;;;;;;2.57;2.37;;;24.00;99.90;;;;;;4930100;29;20473;-68
2022/07/12 11:22:38;;;;;;;2.85;2.75;;;24.10;99.90;;;;;;4934318;29;20461;-69
2022/07/12 11:25:08;;;;;;;2.20;2.10;;;24.00;99.90;;;;;;4932937;29;20256;-69
2022/07/12 11:27:35;;;;;;;2.90;2.70;;;24.00;99.90;;;;;;4935097;29;20462;-69
2022/07/12 11:30:05;;;;;;;2.53;2.53;;;24.00;99.90;;;;;;4935005;29;20474;-69
2022/07/12 11:32:36;;;;;;;2.43;2.43;;;24.10;99.90;;;;;;4934472;29;20485;-69
2022/07/12 11:35:03;;;;;;;2.10;2.10;;;24.20;99.90;;;;;;4927510;29;20493;-69
2022/07/12 11:37:30;;;;;;;2.47;2.47;;;24.20;99.90;;;;;;4935983;29;20493;-69
2022/07/12 11:39:57;;;;;;;2.00;2.00;;;24.20;99.90;;;;;;4931694;29;20533;-68
2022/07/12 11:42:24;;;;;;;1.80;1.80;;;24.10;99.90;;;;;;4934564;29;20833;-69
2022/07/12 11:44:51;;;;;;;1.67;1.67;;;24.10;99.90;;;;;;4934123;29;20628;-68
2022/07/12 11:47:23;;;;;;;2.40;2.40;;;24.20;99.90;;;;;;4934982;29;20458;-69
2022/07/12 11:49:52;;;;;;;2.10;2.00;;;24.10;99.90;;;;;;4934191;29;20461;-69
2022/07/12 11:52:19;;;;;;;1.97;1.97;;;24.30;99.90;;;;;;4927693;29;20493;-69
2022/07/12 11:54:46;;;;;;;2.67;2.60;;;24.20;99.90;;;;;;4934585;29;20586;-69
2022/07/12 11:57:13;;;;;;;2.00;2.00;;;24.20;99.90;;;;;;4932331;29;20838;-68
2022/07/12 11:59:40;;;;;;;2.20;2.10;;;24.30;99.90;;;;;;4934165;29;20466;-69
2022/07/12 12:02:08;;;;;;;2.73;2.73;;;24.40;99.90;;;;;;4933742;29;20497;-68
2022/07/12 12:04:47;;;;;;;2.43;2.43;;;24.30;99.90;;;;;;4933482;29;20471;-68
2022/07/12 12:07:16;;;;;;;1.93;1.93;;;24.40;99.90;;;;;;4934747;29;20526;-69
2022/07/12 12:10:03;;;;;;;2.40;2.30;;;24.40;99.90;;;;;;4934280;29;20501;-67
2022/07/12 12:12:37;;;;;;;2.73;2.40;;;24.30;99.90;;;;;;4926211;29;20497;-68
2022/07/12 12:15:05;;;;;;;1.93;1.93;;;24.50;99.90;;;;;;4934378;29;20488;-69
2022/07/12 12:17:33;;;;;;;2.20;2.10;;;24.50;99.90;;;;;;4934600;29;20500;-68
2022/07/12 12:20:09;;;;;;;2.00;2.00;;;24.50;99.90;;;;;;4933670;29;20465;-68
2022/07/12 12:22:37;;;;;;;2.07;2.07;;;24.50;99.90;;;;;;4926050;29;20883;-68
2022/07/12 12:25:05;;;;;;;2.47;2.47;;;24.60;99.90;;;;;;4934244;29;20470;-68
2022/07/12 12:27:32;;;;;;;1.83;1.83;;;24.60;99.90;;;;;;4934547;29;20461;-68
2022/07/12 12:30:00;;;;;;;2.33;2.27;;;24.70;99.90;;;;;;4929473;29;20533;-67
2022/07/12 12:32:26;;;;;;;2.00;2.00;;;24.70;99.90;;;;;;4925927;29;20541;-68
2022/07/12 12:35:11;;;;;;;2.77;2.67;;;24.80;99.90;;;;;;4934020;29;20472;-68
2022/07/12 12:37:38;;;;;;;2.40;2.30;;;25.00;99.90;;;;;;4934119;29;20492;-69
2022/07/12 12:40:06;;;;;;;2.17;2.13;;;25.00;99.90;;;;;;4934216;29;20461;-68
2022/07/12 12:42:33;;;;;;;2.43;2.33;;;25.00;99.90;;;;;;4930501;29;20489;-68
2022/07/12 12:45:00;;;;;;;2.27;2.27;;;25.10;99.90;;;;;;4927815;29;20468;-68
2022/07/12 12:47:34;;;;;;;2.97;2.90;;;25.10;99.90;;;;;;4934076;29;20473;-68
2022/07/12 12:50:01;;;;;;;2.40;2.40;;;25.20;99.90;;;;;;4933223;29;21054;-68
2022/07/12 12:52:30;;;;;;;3.10;3.00;;;25.10;99.90;;;;;;4932766;29;20532;-68
2022/07/12 12:54:58;;;;;;;3.20;3.00;;;25.30;99.90;;;;;;4933742;29;20472;-68
2022/07/12 12:57:25;;;;;;;3.30;3.20;;;25.30;99.90;;;;;;4933862;29;20508;-68
2022/07/12 12:59:53;;;;;;;3.50;3.40;;;25.40;99.90;;;;;;4932573;29;20481;-69
2022/07/12 13:02:22;;;;;;;4.90;2.93;;;25.40;99.90;;;;;;4935789;29;20529;-69
2022/07/12 13:04:56;;;;;;;2.13;2.13;;;25.50;99.90;;;;;;5090847;27;20544;-68
2022/07/12 13:07:23;;;;;;;3.60;3.50;;;25.40;99.90;;;;;;5089284;28;20470;-68
2022/07/12 13:09:51;;;;;;;3.70;3.42;;;25.40;99.90;;;;;;5089529;28;20460;-68
2022/07/12 13:12:18;;;;;;;3.03;3.03;;;25.40;99.90;;;;;;5079305;28;20279;-68
2022/07/12 13:14:45;;;;;;;2.60;2.60;;;25.30;99.90;;;;;;5075816;28;20466;-68
2022/07/12 13:17:11;;;;;;;3.30;3.20;;;25.30;99.90;;;;;;5086595;28;20459;-67
2022/07/12 13:19:38;;;;;;;2.85;2.75;;;25.50;99.90;;;;;;5081268;28;20910;-68
2022/07/12 13:22:06;;;;;;;3.30;3.20;;;25.60;99.90;;;;;;5080587;28;20219;-68
2022/07/12 13:24:34;;;;;;;3.00;2.90;;;25.80;99.90;;;;;;5079713;28;20479;-68
2022/07/12 13:27:01;;;;;;;3.57;3.30;;;26.00;99.90;;;;;;5076277;28;20456;-68
2022/07/12 13:29:27;;;;;;;3.23;3.17;;;26.00;99.90;;;;;;5073536;28;20455;-68
2022/07/12 13:31:54;;;;;;;2.80;2.80;;;26.00;99.90;;;;;;5069882;28;21498;-68
2022/07/12 13:34:21;;;;;;;2.77;2.40;;;26.00;99.90;;;;;;5082723;28;20992;-68
2022/07/12 13:36:48;;;;;;;2.63;2.53;;;25.90;99.90;;;;;;5087104;28;20467;-68
2022/07/12 13:42:01;;;;;;;2.60;2.60;;;25.90;99.90;;;;;;5085998;28;20608;-68
2022/07/12 13:44:28;;;;;;;3.00;2.90;;;25.90;99.90;;;;;;5083602;28;20491;-68
2022/07/12 13:46:54;;;;;;;2.50;2.40;;;25.90;99.90;;;;;;5087021;28;20684;-68
2022/07/12 13:49:21;;;;;;;2.13;2.13;;;26.00;99.90;;;;;;5072385;28;20459;-68
2022/07/12 13:51:48;;;;;;;2.10;2.07;;;25.90;99.90;;;;;;5067916;28;20487;-68
2022/07/12 13:54:16;;;;;;;1.77;1.77;;;25.90;99.90;;;;;;5085838;28;20571;-67
2022/07/12 13:56:42;;;;;;;1.50;1.50;;;25.80;99.90;;;;;;5082850;28;20941;-68
2022/07/12 13:59:10;;;;;;;1.43;1.43;;;25.90;99.90;;;;;;5087243;28;20394;-68
2022/07/12 14:01:37;;;;;;;1.47;1.47;;;25.90;99.90;;;;;;5078322;28;20571;-68
2022/07/12 14:04:04;;;;;;;1.03;1.03;;;26.10;99.90;;;;;;5080430;28;20483;-68
2022/07/12 14:06:31;;;;;;;1.25;1.25;;;26.20;99.90;;;;;;5081469;28;20532;-68
2022/07/12 14:08:58;;;;;;;1.07;1.07;;;26.20;99.90;;;;;;5081587;28;20197;-68
2022/07/12 14:11:26;;;;;;;1.00;1.00;;;26.20;99.90;;;;;;5086387;28;20487;-68
2022/07/12 14:13:53;;;;;;;1.50;1.50;;;26.30;99.90;;;;;;5081537;28;20463;-69
2022/07/12 14:16:20;;;;;;;1.00;1.00;;;26.30;99.90;;;;;;5072947;28;20795;-68
2022/07/12 14:18:47;;;;;;;1.53;1.37;;;26.30;99.90;;;;;;5060029;28;20471;-68
2022/07/12 14:21:14;;;;;;;1.00;1.00;;;26.30;99.90;;;;;;5069129;28;20493;-68
2022/07/12 14:23:41;;;;;;;1.20;1.20;;;26.30;99.90;;;;;;5063653;28;20479;-69
2022/07/12 14:26:08;;;;;;;1.00;1.00;;;26.40;99.90;;;;;;5073450;28;20867;-68
2022/07/12 14:28:36;;;;;;;1.00;1.00;;;26.50;99.90;;;;;;5072733;28;20459;-68
2022/07/12 14:31:04;;;;;;;1.03;1.03;;;26.50;99.90;;;;;;5072775;28;20487;-68
2022/07/12 14:33:31;;;;;;;1.23;1.23;;;26.60;99.90;;;;;;5070343;28;20464;-68
2022/07/12 14:35:58;;;;;;;1.30;1.30;;;26.60;99.90;;;;;;5074549;28;20463;-68
2022/07/12 14:38:25;;;;;;;1.40;1.40;;;26.70;99.90;;;;;;5077504;28;20229;-68
2022/07/12 14:40:52;;;;;;;1.30;1.30;;;26.70;99.90;;;;;;5082758;28;20497;-68
2022/07/12 14:43:20;;;;;;;1.00;1.00;;;26.80;99.90;;;;;;5077578;28;20560;-67
2022/07/12 14:45:48;;;;;;;2.10;1.50;;;26.80;99.90;;;;;;5073520;28;20495;-68
2022/07/12 14:48:14;;;;;;;1.20;1.20;;;26.80;99.90;;;;;;5073738;28;20547;-68
2022/07/12 14:50:41;;;;;;;1.40;1.40;;;26.80;99.90;;;;;;5058948;28;20476;-70
2022/07/12 14:53:08;;;;;;;1.10;1.10;;;26.80;99.90;;;;;;5070119;28;20924;-68
2022/07/12 14:55:34;;;;;;;1.40;1.20;;;27.00;99.90;;;;;;5069663;28;20513;-68
2022/07/12 14:58:02;;;;;;;1.30;1.30;;;27.10;99.90;;;;;;5071215;28;20778;-68
2022/07/12 15:00:29;;;;;;;1.00;1.00;;;27.20;99.80;;;;;;5063848;28;20504;-68
2022/07/12 15:02:59;;;;;;;1.30;1.30;;;27.20;98.10;;;;;;5060848;28;20653;-68
2022/07/12 15:05:26;;;;;;;1.07;1.07;;;27.30;99.00;;;;;;5069985;28;21123;-68
2022/07/12 15:07:52;;;;;;;1.65;1.65;;;27.40;99.90;;;;;;5054895;28;20461;-68
2022/07/12 15:10:19;;;;;;;1.40;1.40;;;27.50;99.00;;;;;;5054184;28;20529;-68
2022/07/12 15:12:46;;;;;;;1.30;1.20;;;27.50;98.10;;;;;;5070173;28;20853;-68
2022/07/12 15:15:13;;;;;;;1.17;1.17;;;27.60;98.20;;;;;;5062689;28;20460;-68
2022/07/12 15:17:40;;;;;;;1.47;1.37;;;27.60;97.90;;;;;;5058600;28;20474;-68
2022/07/12 15:20:09;;;;;;;1.50;1.40;;;27.60;98.70;;;;;;5067378;28;20470;-67
2022/07/12 15:22:36;;;;;;;1.47;1.47;;;27.50;99.40;;;;;;5069484;28;20483;-68
2022/07/12 15:25:02;;;;;;;1.20;1.20;;;27.20;96.30;;;;;;5070558;28;20857;-67
2022/07/12 15:27:29;;;;;;;1.03;1.03;;;27.20;97.10;;;;;;5060633;28;20455;-67
2022/07/12 15:29:56;;;;;;;2.10;2.00;;;27.30;96.50;;;;;;5056858;28;20475;-67
2022/07/12 15:32:23;;;;;;;1.40;1.40;;;27.20;97.50;;;;;;5068669;28;20513;-67
2022/07/12 15:34:49;;;;;;;1.75;1.75;;;27.20;97.00;;;;;;5063732;28;20509;-67
2022/07/12 15:37:17;;;;;;;1.90;1.80;;;27.30;97.10;;;;;;5069897;28;20852;-67
2022/07/12 15:39:44;;;;;;;2.00;2.00;;;27.30;96.70;;;;;;5064647;28;20225;-67
2022/07/12 15:42:11;;;;;;;2.30;2.30;;;27.30;96.80;;;;;;5053760;28;20484;-68
2022/07/12 15:44:39;;;;;;;2.00;1.90;;;27.30;97.70;;;;;;5066861;28;20493;-68
2022/07/12 15:47:06;;;;;;;1.97;1.97;;;27.30;98.00;;;;;;5064100;28;20212;-68
2022/07/12 15:49:32;;;;;;;2.10;2.00;;;27.40;98.00;;;;;;5060491;28;20571;-67
2022/07/12 15:54:44;;;;;;;3.17;3.17;;;27.30;99.20;;;;;;5069711;28;20889;-68
2022/07/12 15:57:11;;;;;;;2.97;2.87;;;27.20;99.70;;;;;;5070724;28;20462;-68
2022/07/12 15:59:38;;;;;;;2.00;2.00;;;27.30;99.60;;;;;;5064222;28;20476;-67
2022/07/12 16:02:05;;;;;;;2.30;2.30;;;27.40;99.50;;;;;;5066786;28;20489;-67
2022/07/12 16:04:31;;;;;;;2.20;2.13;;;27.50;98.80;;;;;;5063120;28;20225;-67
2022/07/12 16:06:58;;;;;;;2.37;2.20;;;27.40;98.40;;;;;;5069938;28;20508;-67
2022/07/12 16:09:25;;;;;;;2.37;2.27;;;27.30;99.00;;;;;;5060145;28;20468;-67
2022/07/12 16:11:53;;;;;;;3.17;3.07;;;27.30;99.60;;;;;;5062958;28;20484;-67
2022/07/12 16:14:20;;;;;;;2.67;2.60;;;27.30;99.90;;;;;;5066860;28;20483;-67
2022/07/12 16:16:47;;;;;;;2.72;2.63;;;27.30;99.90;;;;;;5066353;28;20463;-66
2022/07/12 16:19:14;;;;;;;2.77;2.67;;;27.40;99.00;;;;;;5067347;28;20209;-66
2022/07/12 16:21:41;;;;;;;2.60;2.60;;;27.40;99.70;;;;;;5069973;28;20480;-67
2022/07/12 16:24:08;;;;;;;2.40;2.40;;;27.50;99.70;;;;;;5058402;28;20563;-66
2022/07/12 16:26:35;;;;;;;2.27;2.17;;;27.50;99.30;;;;;;5052268;28;20483;-66
2022/07/12 16:29:03;;;;;;;2.50;2.40;;;27.40;98.20;;;;;;5064116;28;20474;-66
2022/07/12 16:31:30;;;;;;;2.10;2.10;;;27.40;97.80;;;;;;5060200;28;20479;-66
2022/07/12 16:33:56;;;;;;;2.57;2.50;;;27.30;98.50;;;;;;5064463;28;20800;-66
2022/07/12 16:36:23;;;;;;;2.40;2.40;;;27.30;98.90;;;;;;5056738;28;20457;-66
2022/07/12 16:38:50;;;;;;;2.70;2.70;;;27.20;99.20;;;;;;5062670;28;20459;-66
2022/07/12 16:41:17;;;;;;;4.45;4.35;;;27.20;99.90;;;;;;5069657;28;20480;-66
2022/07/12 16:43:43;;;;;;;2.40;2.40;;;27.20;99.30;;;;;;5060851;28;20194;-67
2022/07/12 16:46:11;;;;;;;2.17;2.17;;;27.20;98.20;;;;;;5062054;28;20481;-68
2022/07/12 16:48:38;;;;;;;2.67;2.47;;;27.10;98.60;;;;;;5066793;28;20463;-68
2022/07/12 16:51:23;;;;;;;3.00;2.90;;;27.10;99.30;;;;;;5055446;28;20838;-67
2022/07/12 16:53:52;;;;;;;3.03;2.97;;;27.00;99.60;;;;;;5056299;28;20955;-68
2022/07/12 16:56:20;;;;;;;1.77;1.77;;;27.00;99.70;;;;;;5067587;28;20217;-67
2022/07/12 16:58:46;;;;;;;4.17;4.00;;;26.80;98.20;;;;;;5058689;28;20463;-66
2022/07/12 17:01:14;;;;;;;2.40;2.40;;;26.70;98.20;;;;;;5050244;28;20488;-67
2022/07/12 17:03:41;;;;;;;6.45;5.95;;;26.60;97.70;;;;;;5055702;28;20474;-67
2022/07/12 17:06:08;;;;;;;6.03;5.77;;;26.50;97.50;;;;;;5065489;28;20216;-67